LFKF 210400Z AUTO VRB02KT 9999 OVC060 04/04 Q1018 NOSIG

ElémentsDécodage
LFKF Station météo située sur l'aérodrome de FIGARI Sud-Corse
210400Z émis le 21 du mois à 04h00 UTC
AUTO Bulletin édité par un automate
VRB02KT vent de direction variable, 02 noeuds
9999 visibilité horizontale supérieure à 10 Km
OVC060 couverture nuageuse totale (8/8) à 6000 pieds
04/04 température 04°C, point de rosée 04°C
 soit une humidité relative de 100%
Q1018 la pression au niveau de la mer (QNH) est de 1018 hPa
NOSIG Pas de changement significatif prévu au cours des deux heures suivant l'heure de l'observation